Time;durP1;ratioP1;P1;durP2;ratioP2;P2;SDS_P1;SDS_P2;PMS_P1;PMS_P2;Temp;Humidity;BMP_temperature;BMP_pressure;BME280_temperature;BME280_humidity;BME280_pressure;Samples;Min_cycle;Max_cycle;Signal;HPM_P1;HPM_P2
2023/07/19 00:02:11;;;;;;;1.00;1.00;;;;;;;23.26;59.63;96923.78;5041825;28;20490;-68
2023/07/19 00:04:38;;;;;;;1.00;1.00;;;;;;;23.38;59.78;96948.41;5043716;28;20131;-68
2023/07/19 00:07:05;;;;;;;1.10;1.10;;;;;;;23.43;59.72;96940.13;5043617;28;20049;-68
2023/07/19 00:09:31;;;;;;;0.95;0.95;;;;;;;23.43;59.80;96945.00;5043523;28;20155;-68
2023/07/19 00:11:58;;;;;;;1.00;1.00;;;;;;;23.16;60.53;96917.22;5043062;28;20052;-67
2023/07/19 00:14:25;;;;;;;0.90;0.90;;;;;;;23.05;60.67;96913.19;5043240;28;20080;-67
2023/07/19 00:16:51;;;;;;;1.00;1.00;;;;;;;23.15;60.76;96920.50;5043405;28;20056;-68
2023/07/19 00:19:18;;;;;;;1.00;1.00;;;;;;;23.12;61.89;96933.53;5043142;28;20064;-68
2023/07/19 00:21:47;;;;;;;1.00;1.00;;;;;;;21.88;61.99;96741.19;5042941;28;20811;-68
2023/07/19 00:24:14;;;;;;;1.10;1.10;;;;;;;23.17;61.89;96943.47;5043224;28;20053;-67
2023/07/19 00:26:40;;;;;;;0.90;0.90;;;;;;;22.76;62.10;96901.25;5043534;28;20059;-68
2023/07/19 00:29:07;;;;;;;1.00;1.00;;;;;;;22.80;62.10;96901.91;5043299;28;20063;-69
2023/07/19 00:31:34;;;;;;;1.05;1.05;;;;;;;22.87;62.45;96918.66;5043407;28;20087;-68
2023/07/19 00:34:01;;;;;;;1.00;1.00;;;;;;;22.83;63.14;96946.22;5045914;28;20057;-69
2023/07/19 00:36:28;;;;;;;0.95;0.95;;;;;;;22.40;64.14;96930.59;5045050;28;20048;-68
2023/07/19 00:38:55;;;;;;;1.02;1.02;;;;;;;22.56;64.63;96954.38;5045332;28;20187;-68
2023/07/19 00:41:22;;;;;;;1.10;1.10;;;;;;;22.70;63.76;96965.22;5046637;28;20060;-68
2023/07/19 00:43:49;;;;;;;1.00;1.00;;;;;;;22.72;64.00;96962.72;5061687;28;20132;-68
2023/07/19 00:46:16;;;;;;;1.02;1.02;;;;;;;22.11;64.29;96879.09;5046718;28;20053;-68
2023/07/19 00:48:43;;;;;;;0.98;0.98;;;;;;;22.50;64.17;96934.34;5046789;28;20040;-68
2023/07/19 00:51:10;;;;;;;0.90;0.90;;;;;;;22.09;64.88;96892.88;5049562;28;20532;-68
2023/07/19 00:53:40;;;;;;;0.90;0.90;;;;;;;22.19;65.32;96919.19;5066490;28;20167;-68
2023/07/19 00:56:10;;;;;;;1.10;1.10;;;;;;;22.51;65.04;96946.44;5066144;28;20539;-68
2023/07/19 00:58:37;;;;;;;0.90;0.90;;;;;;;22.57;64.87;96944.66;5066246;28;20044;-68
2023/07/19 01:01:05;;;;;;;1.00;1.00;;;;;;;22.66;64.89;96941.94;5065841;28;20054;-68
2023/07/19 01:03:33;;;;;;;0.95;0.95;;;;;;;22.51;65.58;96923.84;5066147;28;20515;-68
2023/07/19 01:06:00;;;;;;;0.90;0.90;;;;;;;22.42;65.75;96911.19;5066275;28;20052;-67
2023/07/19 01:08:27;;;;;;;1.13;1.13;;;;;;;22.51;65.80;96941.56;5065122;28;20195;-68
2023/07/19 01:10:54;;;;;;;0.90;0.90;;;;;;;22.48;66.19;96944.50;5065988;28;20056;-68
2023/07/19 01:13:21;;;;;;;1.00;1.00;;;;;;;22.10;66.29;96902.91;5065928;28;20059;-67
2023/07/19 01:15:48;;;;;;;1.10;1.10;;;;;;;22.25;67.00;96929.47;5052587;28;20087;-67
2023/07/19 01:18:17;;;;;;;0.90;0.90;;;;;;;22.19;67.48;96942.53;5066031;28;20403;-67
2023/07/19 01:20:45;;;;;;;1.00;1.00;;;;;;;22.18;67.64;96940.16;5065627;28;20293;-68
2023/07/19 01:23:12;;;;;;;0.90;0.90;;;;;;;21.91;68.41;96903.09;5066126;28;20052;-68
2023/07/19 01:25:39;;;;;;;0.90;0.90;;;;;;;22.11;67.83;96918.59;5064067;28;20226;-67
2023/07/19 01:28:06;;;;;;;0.90;0.90;;;;;;;22.18;67.43;96917.59;5065915;28;20051;-67
2023/07/19 01:30:32;;;;;;;0.90;0.90;;;;;;;21.98;67.54;96903.69;5065923;28;20127;-68
2023/07/19 01:32:59;;;;;;;1.00;1.00;;;;;;;22.13;67.94;96938.69;5065850;28;20052;-68
2023/07/19 01:35:26;;;;;;;1.00;1.00;;;;;;;21.78;68.46;96900.25;5065408;28;20480;-67
2023/07/19 01:37:53;;;;;;;1.00;1.00;;;;;;;21.53;68.68;96871.94;5065596;28;20055;-68
2023/07/19 01:40:19;;;;;;;0.90;0.90;;;;;;;21.85;69.04;96927.47;5064872;28;20053;-68
2023/07/19 01:42:47;;;;;;;1.00;1.00;;;;;;;21.61;69.33;96889.47;5065278;28;20513;-68
2023/07/19 01:45:13;;;;;;;1.00;1.00;;;;;;;21.31;70.20;96907.59;5063339;28;20083;-68
2023/07/19 01:47:40;;;;;;;0.90;0.90;;;;;;;21.02;70.14;96837.16;5064969;28;20082;-68
2023/07/19 01:50:07;;;;;;;0.90;0.90;;;;;;;20.62;69.75;96744.94;5065277;28;20052;-68
2023/07/19 01:52:34;;;;;;;0.80;0.80;;;;;;;21.83;69.47;96935.59;5050030;28;20063;-68
2023/07/19 01:55:00;;;;;;;0.90;0.90;;;;;;;21.69;69.65;96913.38;5044867;28;20463;-68
2023/07/19 01:57:27;;;;;;;1.00;1.00;;;;;;;21.85;69.70;96928.25;5045300;28;20048;-68
2023/07/19 01:59:54;;;;;;;1.00;1.00;;;;;;;21.66;69.36;96898.16;5044869;28;20503;-69
2023/07/19 02:02:21;;;;;;;1.05;1.05;;;;;;;21.75;69.26;96906.78;5045399;28;20123;-68
2023/07/19 02:04:47;;;;;;;1.00;1.00;;;;;;;21.82;69.88;96951.72;5044512;28;20045;-68
2023/07/19 02:07:14;;;;;;;1.00;1.00;;;;;;;21.87;70.53;96939.09;5045132;28;20128;-69
2023/07/19 02:09:41;;;;;;;0.90;0.90;;;;;;;21.32;70.14;96849.22;5040939;28;20068;-68
2023/07/19 02:12:08;;;;;;;0.90;0.90;;;;;;;21.87;69.70;96908.06;5053799;28;20106;-68
2023/07/19 02:14:37;;;;;;;0.90;0.90;;;;;;;22.08;69.39;96925.13;5045147;28;20139;-68
2023/07/19 02:17:04;;;;;;;1.10;1.10;;;;;;;22.04;69.95;96930.09;5042891;28;20049;-68
2023/07/19 02:19:30;;;;;;;1.15;1.15;;;;;;;21.82;70.04;96900.94;5044744;28;20512;-68
2023/07/19 02:21:57;;;;;;;1.00;1.00;;;;;;;22.01;69.80;96933.03;5044859;28;20512;-68
2023/07/19 02:24:24;;;;;;;1.00;1.00;;;;;;;22.01;69.86;96933.81;5043402;28;20048;-68
2023/07/19 02:26:50;;;;;;;1.20;1.20;;;;;;;20.60;69.77;96707.97;5044971;28;20064;-68
2023/07/19 02:29:17;;;;;;;1.00;1.00;;;;;;;21.55;69.21;96858.22;5044791;28;20087;-68
2023/07/19 02:31:44;;;;;;;1.00;1.00;;;;;;;21.49;69.69;96843.09;5043039;28;20434;-68
2023/07/19 02:34:10;;;;;;;1.08;1.08;;;;;;;21.81;70.31;96921.13;5044131;28;20433;-68
2023/07/19 02:36:37;;;;;;;1.00;1.00;;;;;;;21.74;70.00;96899.53;5043151;28;20623;-68
2023/07/19 02:39:04;;;;;;;0.90;0.90;;;;;;;21.42;70.33;96871.47;5042417;28;20053;-69
2023/07/19 02:41:31;;;;;;;0.95;0.95;;;;;;;22.03;69.85;96956.75;5042743;28;20088;-68
2023/07/19 02:43:59;;;;;;;1.00;1.00;;;;;;;21.82;69.83;96937.63;5044145;28;20055;-66
2023/07/19 02:46:26;;;;;;;1.02;1.02;;;;;;;21.66;70.25;96909.44;5043938;28;20057;-67
2023/07/19 02:48:53;;;;;;;1.10;1.10;;;;;;;21.70;71.68;96941.16;5044323;28;20313;-66
2023/07/19 02:51:20;;;;;;;1.00;1.00;;;;;;;21.67;72.46;96950.50;5048110;28;20072;-67
2023/07/19 02:53:49;;;;;;;1.00;1.00;;;;;;;21.47;72.93;96918.84;5064557;28;20045;-65
2023/07/19 02:56:16;;;;;;;1.00;1.00;;;;;;;21.40;73.03;96919.06;5063541;28;20465;-67
2023/07/19 02:58:42;;;;;;;1.02;1.02;;;;;;;21.63;72.26;96949.81;5064635;28;20085;-66
2023/07/19 03:01:09;;;;;;;1.00;1.00;;;;;;;21.51;71.45;96924.38;5064131;28;20060;-66
2023/07/19 03:03:36;;;;;;;1.00;1.00;;;;;;;21.74;70.99;96944.66;5064494;28;20056;-66
2023/07/19 03:06:03;;;;;;;1.00;1.00;;;;;;;21.95;70.66;96954.56;5064160;28;20053;-67
2023/07/19 03:08:29;;;;;;;1.00;1.00;;;;;;;21.54;70.92;96907.38;5063787;28;20943;-66
2023/07/19 03:10:56;;;;;;;1.00;1.00;;;;;;;21.39;71.06;96894.91;5052036;28;20878;-66
2023/07/19 03:13:23;;;;;;;1.00;1.00;;;;;;;21.47;71.06;96893.47;5043805;28;20057;-66
2023/07/19 03:15:50;;;;;;;0.98;0.98;;;;;;;21.57;71.02;96912.13;5043601;28;20083;-67
2023/07/19 03:18:17;;;;;;;0.95;0.95;;;;;;;21.86;71.04;96958.03;5042336;28;20131;-67
2023/07/19 03:20:43;;;;;;;1.00;1.00;;;;;;;21.98;70.72;96954.47;5043954;28;20044;-66
2023/07/19 03:23:10;;;;;;;1.02;1.02;;;;;;;21.62;70.33;96905.94;5042554;28;20132;-67
2023/07/19 03:25:37;;;;;;;0.95;0.95;;;;;;;21.96;70.53;96950.50;5043717;28;20064;-67
2023/07/19 03:28:04;;;;;;;1.00;1.00;;;;;;;21.92;70.49;96950.63;5059141;28;20060;-66
2023/07/19 03:30:31;;;;;;;0.95;0.95;;;;;;;21.98;70.39;96946.00;5043485;28;20049;-67
2023/07/19 03:32:58;;;;;;;1.00;1.00;;;;;;;22.02;70.14;96960.78;5043482;28;20139;-67
2023/07/19 03:35:24;;;;;;;0.90;0.90;;;;;;;21.35;70.75;96862.44;5041724;28;20084;-66
2023/07/19 03:37:51;;;;;;;0.95;0.95;;;;;;;21.86;70.67;96929.81;5043876;28;20135;-66
2023/07/19 03:40:18;;;;;;;0.80;0.80;;;;;;;21.74;70.02;96899.53;5043501;28;20045;-68
2023/07/19 03:42:45;;;;;;;1.00;1.00;;;;;;;22.10;69.99;96936.78;5043574;28;20441;-68
2023/07/19 03:45:12;;;;;;;1.00;1.00;;;;;;;22.30;69.12;96959.94;5058822;28;20107;-68
2023/07/19 03:47:39;;;;;;;1.02;1.02;;;;;;;22.07;69.22;96922.75;5043692;28;20098;-67
2023/07/19 03:50:07;;;;;;;0.90;0.90;;;;;;;22.15;69.26;96913.66;5043230;28;20569;-68
2023/07/19 03:52:34;;;;;;;1.00;1.00;;;;;;;22.46;68.89;96945.72;5053438;28;20068;-68
2023/07/19 03:55:02;;;;;;;0.90;0.90;;;;;;;22.28;68.66;96908.03;5062463;28;20499;-67
2023/07/19 03:57:28;;;;;;;0.90;0.90;;;;;;;22.44;68.00;96917.19;5063795;28;20059;-65
2023/07/19 03:59:55;;;;;;;1.00;1.00;;;;;;;22.42;67.61;96888.59;5048437;28;20053;-67
2023/07/19 04:02:22;;;;;;;0.90;0.90;;;;;;;22.69;67.46;96929.72;5043901;28;20059;-68
2023/07/19 04:04:49;;;;;;;1.00;1.00;;;;;;;22.39;67.61;96900.81;5042851;28;20542;-67
2023/07/19 04:07:16;;;;;;;0.90;0.90;;;;;;;22.07;67.74;96838.94;5043842;28;20478;-67
2023/07/19 04:09:44;;;;;;;0.93;0.93;;;;;;;22.21;67.95;96871.53;5047099;28;20063;-67
2023/07/19 04:12:11;;;;;;;0.90;0.90;;;;;;;22.17;67.68;96849.09;5047512;28;20056;-67
2023/07/19 04:14:38;;;;;;;0.90;0.90;;;;;;;22.88;66.89;96925.88;5047229;28;20052;-67
2023/07/19 04:17:05;;;;;;;1.00;1.00;;;;;;;22.87;67.23;96913.81;5062270;28;20048;-67
2023/07/19 04:19:31;;;;;;;1.00;1.00;;;;;;;22.82;66.71;96882.50;5047051;28;20063;-67
2023/07/19 04:21:58;;;;;;;0.90;0.90;;;;;;;22.75;65.70;96831.88;5047088;28;20057;-67
2023/07/19 04:24:25;;;;;;;1.02;1.02;;;;;;;23.28;65.51;96874.03;5047175;28;20045;-67
2023/07/19 04:26:52;;;;;;;1.05;1.05;;;;;;;23.00;64.75;96814.88;5046678;28;20602;-66
2023/07/19 04:29:19;;;;;;;1.00;1.00;;;;;;;23.34;63.90;96823.34;5046871;28;20132;-67
2023/07/19 04:31:47;;;;;;;1.10;1.10;;;;;;;22.77;63.29;96682.53;5047050;28;20124;-67
2023/07/19 04:34:14;;;;;;;1.05;1.05;;;;;;;24.09;62.16;96885.16;5046295;28;20140;-68
2023/07/19 04:36:43;;;;;;;1.10;1.10;;;;;;;24.34;62.01;96907.66;5046351;28;20057;-67
2023/07/19 04:39:10;;;;;;;1.00;1.00;;;;;;;24.56;60.90;96897.06;5046423;28;20515;-68
2023/07/19 04:41:36;;;;;;;1.15;1.15;;;;;;;24.58;61.73;96888.09;5046314;28;20144;-68
2023/07/19 04:44:03;;;;;;;1.10;1.10;;;;;;;24.47;60.96;96837.53;5045128;28;20053;-68
2023/07/19 04:46:30;;;;;;;1.10;1.10;;;;;;;24.86;60.12;96907.59;5046188;28;20160;-68
2023/07/19 04:48:57;;;;;;;1.20;1.20;;;;;;;25.12;59.78;96891.88;5046400;28;20132;-68
2023/07/19 04:51:23;;;;;;;1.20;1.20;;;;;;;25.09;60.08;96895.66;5046130;28;20716;-67
2023/07/19 04:53:50;;;;;;;1.10;1.10;;;;;;;24.99;59.97;96845.09;5064419;28;20510;-68
2023/07/19 04:56:16;;;;;;;1.20;1.20;;;;;;;25.53;60.06;96895.44;5066607;28;20056;-68
2023/07/19 04:58:43;;;;;;;1.35;1.35;;;;;;;25.83;59.51;96891.63;5066901;28;20044;-67
2023/07/19 05:01:10;;;;;;;1.40;1.40;;;;;;;26.04;59.38;96893.50;5065840;28;20079;-67
2023/07/19 05:03:37;;;;;;;1.25;1.25;;;;;;;25.86;59.77;96845.25;5066388;28;20049;-67
2023/07/19 05:06:03;;;;;;;1.20;1.20;;;;;;;26.39;59.71;96900.38;5065968;28;20071;-67
2023/07/19 05:08:30;;;;;;;1.40;1.40;;;;;;;26.36;60.04;96884.28;5066419;28;20528;-68
2023/07/19 05:10:57;;;;;;;1.20;1.20;;;;;;;26.44;60.30;96879.84;5065718;28;20055;-68
2023/07/19 05:13:23;;;;;;;1.15;1.15;;;;;;;26.32;59.51;96855.25;5065459;28;20052;-67
2023/07/19 05:15:50;;;;;;;1.40;1.40;;;;;;;26.45;59.36;96875.72;5065768;28;20058;-68
2023/07/19 05:18:17;;;;;;;1.25;1.25;;;;;;;26.49;59.10;96859.28;5065307;28;20052;-67
2023/07/19 05:20:43;;;;;;;1.33;1.33;;;;;;;26.23;60.04;96824.03;5065889;28;20088;-67
2023/07/19 05:23:11;;;;;;;1.13;1.13;;;;;;;26.86;59.91;96883.44;5066144;28;20058;-67
2023/07/19 05:25:38;;;;;;;1.20;1.20;;;;;;;26.55;60.27;96835.44;5065434;28;20080;-68
2023/07/19 05:28:06;;;;;;;1.33;1.33;;;;;;;26.72;59.29;96861.41;5063718;28;20571;-68
2023/07/19 05:30:32;;;;;;;1.35;1.35;;;;;;;27.14;56.11;96875.56;5065461;28;20060;-68
2023/07/19 05:32:59;;;;;;;1.20;1.20;;;;;;;27.07;57.12;96828.34;5065945;28;20048;-68
2023/07/19 05:35:26;;;;;;;1.38;1.38;;;;;;;26.86;59.91;96842.88;5063719;28;20461;-68
2023/07/19 05:37:52;;;;;;;1.42;1.42;;;;;;;26.16;58.78;96713.63;5067838;28;20060;-66
2023/07/19 05:40:19;;;;;;;1.42;1.42;;;;;;;27.34;58.75;96907.06;5065516;28;20237;-67
2023/07/19 05:42:46;;;;;;;1.40;1.40;;;;;;;26.08;58.88;96712.41;5063712;28;20653;-67
2023/07/19 05:45:13;;;;;;;1.50;1.50;;;;;;;27.44;58.87;96906.50;5063905;28;20052;-67
2023/07/19 05:47:40;;;;;;;1.35;1.35;;;;;;;27.16;57.66;96845.34;5065597;28;20049;-67
2023/07/19 05:50:07;;;;;;;1.48;1.48;;;;;;;27.55;57.29;96920.97;5064743;28;20083;-67
2023/07/19 05:52:34;;;;;;;1.40;1.40;;;;;;;26.33;57.19;96669.34;5057111;28;20582;-67
2023/07/19 05:55:00;;;;;;;1.70;1.70;;;;;;;26.08;56.11;96601.69;5060802;28;20082;-72
2023/07/19 05:57:32;;;;;;;1.60;1.60;;;;;;;26.95;56.04;96709.97;5063862;28;20056;-70
2023/07/19 06:00:14;;;;;;;1.27;1.27;;;;;;;27.29;55.59;96814.63;5060980;28;20057;-76
2023/07/19 06:02:43;;;;;;;1.40;1.40;;;;;;;28.04;54.96;96892.72;5053607;28;20570;-65
2023/07/19 06:05:21;;;;;;;1.55;1.55;;;;;;;27.87;53.29;96803.31;5060837;28;20055;-70
2023/07/19 06:07:48;;;;;;;1.42;1.42;;;;;;;28.34;52.95;96852.84;5065646;28;20179;-75
2023/07/19 06:10:16;;;;;;;1.63;1.63;;;;;;;28.18;52.30;96809.31;5064229;28;20048;-71
2023/07/19 06:12:44;;;;;;;1.40;1.40;;;;;;;28.95;51.80;96868.88;5063125;28;20091;-67
2023/07/19 06:15:11;;;;;;;1.45;1.45;;;;;;;29.19;50.73;96878.06;5061851;28;20059;-72
2023/07/19 06:17:41;;;;;;;1.52;1.52;;;;;;;29.34;49.72;96838.81;5058351;28;20055;-64
2023/07/19 06:20:10;;;;;;;1.73;1.73;;;;;;;28.59;48.48;96686.91;5063772;28;20131;-64
2023/07/19 06:22:37;;;;;;;1.75;1.75;;;;;;;29.55;49.95;96857.50;5062910;28;20110;-71
2023/07/19 06:25:04;;;;;;;1.90;1.90;;;;;;;29.73;49.70;96825.84;5050860;28;20098;-69
2023/07/19 06:27:31;;;;;;;2.10;2.10;;;;;;;28.97;49.69;96703.72;5060942;28;20056;-74
2023/07/19 06:29:59;;;;;;;1.92;1.92;;;;;;;29.93;48.59;96825.78;5061571;28;20446;-69
2023/07/19 06:32:25;;;;;;;1.67;1.67;;;;;;;30.04;48.38;96825.88;5062447;28;20242;-66
2023/07/19 06:34:52;;;;;;;1.77;1.77;;;;;;;29.04;47.89;96683.31;5063098;28;20048;-76
2023/07/19 06:37:19;;;;;;;1.88;1.88;;;;;;;29.93;47.13;96782.94;5063344;28;20044;-73
2023/07/19 06:39:49;;;;;;;1.85;1.85;;;;;;;28.97;45.85;96652.38;5060855;28;20049;-74
2023/07/19 06:42:15;;;;;;;2.10;2.10;;;;;;;30.73;45.44;96885.53;5062678;28;20385;-69
2023/07/19 06:44:42;;;;;;;2.10;2.10;;;;;;;30.42;44.13;96819.75;5060528;28;20075;-69
2023/07/19 06:47:10;;;;;;;1.70;1.70;;;;;;;30.85;43.77;96887.22;5061172;28;20049;-71
2023/07/19 06:49:37;;;;;;;1.92;1.92;;;;;;;30.44;44.26;96817.19;5054845;28;20072;-62
2023/07/19 06:52:04;;;;;;;1.92;1.92;;;;;;;31.01;42.90;96874.31;5055411;28;20051;-71
2023/07/19 06:54:31;;;;;;;2.00;2.00;;;;;;;30.00;41.91;96695.97;5056500;28;20063;-67
2023/07/19 06:56:58;;;;;;;1.90;1.90;;;;;;;30.97;42.66;96827.22;5061082;28;20055;-69
2023/07/19 06:59:27;;;;;;;1.88;1.88;;;;;;;30.70;41.62;96851.41;5063141;28;20056;-64
2023/07/19 07:01:53;;;;;;;1.75;1.75;;;;;;;31.28;40.22;96872.91;5061713;28;20062;-66
2023/07/19 07:04:20;;;;;;;1.80;1.80;;;;;;;31.34;40.93;96859.44;5061379;28;20554;-66
2023/07/19 07:06:47;;;;;;;1.90;1.90;;;;;;;31.20;41.37;96866.09;5062764;28;20048;-68
2023/07/19 07:09:14;;;;;;;2.08;2.08;;;;;;;30.36;40.50;96704.59;5063189;28;20132;-73
2023/07/19 07:11:41;;;;;;;1.80;1.80;;;;;;;31.35;38.95;96795.13;5062572;28;20053;-70
2023/07/19 07:14:08;;;;;;;1.80;1.80;;;;;;;32.00;38.96;96849.03;5063403;28;20050;-70
2023/07/19 07:16:35;;;;;;;1.75;1.75;;;;;;;31.13;38.10;96689.09;5063761;28;20155;-65
2023/07/19 07:19:02;;;;;;;2.10;2.10;;;;;;;31.26;38.02;96680.81;5061278;28;20526;-74
2023/07/19 07:21:29;;;;;;;2.20;2.20;;;;;;;32.59;37.26;96837.38;5062486;28;20063;-72
2023/07/19 07:23:55;;;;;;;2.20;2.20;;;;;;;31.90;37.51;96706.50;5062084;28;20566;-68
2023/07/19 07:26:22;;;;;;;2.05;2.05;;;;;;;33.02;37.40;96835.78;5062220;28;20051;-72
2023/07/19 07:28:49;;;;;;;2.10;2.10;;;;;;;33.11;37.14;96832.66;5061244;28;20491;-69
2023/07/19 07:31:15;;;;;;;2.00;2.00;;;;;;;32.85;36.66;96763.25;5063074;28;20147;-71
2023/07/19 07:33:42;;;;;;;2.03;2.03;;;;;;;33.44;35.91;96829.69;5062450;28;20114;-72
2023/07/19 07:36:09;;;;;;;2.20;2.20;;;;;;;33.77;35.62;96836.59;5060120;28;20045;-71
2023/07/19 07:38:36;;;;;;;2.10;2.10;;;;;;;33.58;35.25;96834.34;5060167;28;20052;-72
2023/07/19 07:41:06;;;;;;;2.30;2.30;;;;;;;33.90;34.99;96833.94;5060198;28;20538;-71
2023/07/19 07:43:33;;;;;;;2.38;2.35;;;;;;;33.94;34.82;96840.19;5065566;28;20132;-71
2023/07/19 07:46:00;;;;;;;2.33;2.33;;;;;;;33.34;35.19;96713.50;5066925;28;20471;-71
2023/07/19 07:48:27;;;;;;;2.10;2.10;;;;;;;34.01;34.20;96825.25;5067489;28;20080;-72
2023/07/19 07:50:54;;;;;;;2.00;2.00;;;;;;;33.27;34.13;96685.34;5067462;28;20148;-71
2023/07/19 07:53:21;;;;;;;1.75;1.75;;;;;;;33.44;34.34;96783.72;5067185;28;20063;-74
2023/07/19 07:55:48;;;;;;;1.65;1.65;;;;;;;32.89;35.22;96740.06;5066630;28;20076;-69
2023/07/19 07:58:16;;;;;;;1.90;1.90;;;;;;;32.88;36.44;96813.88;5066601;28;20067;-70
2023/07/19 08:00:44;;;;;;;2.30;2.30;;;;;;;33.14;36.13;96794.25;5066741;28;20049;-70
2023/07/19 08:03:11;;;;;;;2.13;2.13;;;;;;;33.81;35.29;96825.59;5066830;28;20131;-70
2023/07/19 08:05:38;;;;;;;2.20;2.20;;;;;;;33.67;35.47;96793.03;5066497;28;20153;-71
2023/07/19 08:08:06;;;;;;;1.98;1.98;;;;;;;33.30;35.51;96793.41;5065063;28;20129;-71
2023/07/19 08:10:33;;;;;;;2.00;2.00;;;;;;;33.01;34.89;96730.09;5066707;28;20049;-70
2023/07/19 08:12:59;;;;;;;2.22;2.22;;;;;;;33.16;35.08;96799.47;5066816;28;20052;-72
2023/07/19 08:15:26;;;;;;;2.17;2.17;;;;;;;32.64;35.65;96718.97;5064785;28;20052;-70
2023/07/19 08:17:53;;;;;;;2.20;2.20;;;;;;;32.75;34.60;96718.94;5061701;28;20142;-70
2023/07/19 08:20:20;;;;;;;2.05;2.05;;;;;;;33.28;35.05;96813.25;5064247;28;20526;-76
2023/07/19 08:22:47;;;;;;;2.15;2.15;;;;;;;33.00;35.49;96789.59;5059886;28;20059;-69
2023/07/19 08:25:16;;;;;;;2.00;2.00;;;;;;;33.34;35.37;96759.44;5045862;28;20520;-72
2023/07/19 08:27:53;;;;;;;1.90;1.90;;;;;;;33.95;34.36;96815.88;5046797;28;20049;-71
2023/07/19 08:30:21;;;;;;;2.03;2.03;;;;;;;34.20;34.37;96812.56;5052581;28;20497;-67
2023/07/19 08:32:48;;;;;;;2.05;2.05;;;;;;;34.10;34.37;96779.69;5064193;28;20056;-76
2023/07/19 08:35:16;;;;;;;1.70;1.70;;;;;;;34.40;33.63;96779.75;5060504;28;20056;-78
2023/07/19 08:37:46;;;;;;;1.83;1.83;;;;;;;34.67;34.02;96804.63;5066210;28;20048;-75
2023/07/19 08:40:15;;;;;;;2.00;2.00;;;;;;;34.02;33.08;96714.69;5058508;28;20052;-72
2023/07/19 08:42:42;;;;;;;2.03;2.03;;;;;;;33.59;34.59;96804.28;5063812;28;20056;-68
2023/07/19 08:45:11;;;;;;;2.08;2.08;;;;;;;33.39;33.93;96718.47;5063550;28;20377;-78
2023/07/19 08:47:40;;;;;;;1.98;1.98;;;;;;;34.31;34.19;96824.00;5047787;28;20092;-73
2023/07/19 08:50:10;;;;;;;2.00;2.00;;;;;;;34.54;32.46;96772.84;5045789;28;20049;-74
2023/07/19 08:52:37;;;;;;;2.45;2.40;;;;;;;34.84;32.78;96802.38;5045002;28;20075;-72
2023/07/19 08:55:05;;;;;;;1.90;1.90;;;;;;;35.00;31.82;96799.34;5044389;28;20049;-70
2023/07/19 08:57:37;;;;;;;2.05;2.05;;;;;;;34.98;32.01;96796.22;5044509;28;20053;-70
2023/07/19 09:00:04;;;;;;;1.92;1.92;;;;;;;34.92;31.41;96751.53;5043566;28;20413;-70
2023/07/19 09:02:31;;;;;;;2.47;2.40;;;;;;;34.96;31.36;96747.03;5044270;28;20159;-75
2023/07/19 09:05:05;;;;;;;2.10;2.10;;;;;;;34.86;31.03;96728.53;5043879;28;20467;-74
2023/07/19 09:07:33;;;;;;;2.00;2.00;;;;;;;34.88;31.02;96716.50;5044935;28;20136;-75
2023/07/19 09:10:00;;;;;;;2.05;2.05;;;;;;;35.20;30.64;96759.84;5051229;28;20149;-76
2023/07/19 09:12:43;;;;;;;2.05;2.05;;;;;;;34.47;31.52;96684.22;5065057;28;20060;-70
2023/07/19 09:15:11;;;;;;;;;;;;;;;35.13;30.90;96778.50;5051546;28;20057;-72
2023/07/19 09:17:43;;;;;;;2.03;2.03;;;;;;;34.79;31.19;96737.75;5060160;28;19946;-70
2023/07/19 09:20:11;;;;;;;2.42;2.40;;;;;;;35.22;31.04;96781.03;5060809;28;20086;-72
2023/07/19 09:22:39;;;;;;;1.90;1.90;;;;;;;34.81;30.70;96728.56;5064311;28;20052;-65
2023/07/19 09:25:09;;;;;;;2.15;2.15;;;;;;;34.81;31.12;96752.41;5064078;28;20626;-65
2023/07/19 09:27:36;;;;;;;2.00;2.00;;;;;;;34.84;31.94;96779.34;5065603;28;20067;-71
2023/07/19 09:30:08;;;;;;;1.83;1.83;;;;;;;34.97;31.34;96759.31;5063890;28;20049;-73
2023/07/19 09:32:36;;;;;;;2.13;2.13;;;;;;;34.97;32.07;96759.31;5045539;28;20122;-64
2023/07/19 09:35:05;;;;;;;1.83;1.83;;;;;;;34.72;32.95;96760.59;5043561;28;20797;-65
2023/07/19 09:37:31;;;;;;;2.08;2.08;;;;;;;34.75;31.33;96678.94;5058274;28;20044;-71
2023/07/19 09:40:04;;;;;;;2.03;2.03;;;;;;;34.50;33.00;96737.81;5063574;28;20080;-66
2023/07/19 09:42:36;;;;;;;1.95;1.95;;;;;;;33.83;32.88;96558.53;5063593;28;20135;-78
2023/07/19 09:45:06;;;;;;;2.30;2.30;;;;;;;34.71;32.79;96748.34;5057536;28;20072;-76
2023/07/19 09:47:37;;;;;;;1.92;1.92;;;;;;;34.87;33.28;96735.06;5062255;28;20451;-72
2023/07/19 09:50:06;;;;;;;2.15;2.15;;;;;;;34.39;32.55;96672.53;5061709;28;20049;-74
2023/07/19 09:52:37;;;;;;;1.95;1.95;;;;;;;35.29;33.01;96727.78;5063345;28;20131;-74
2023/07/19 09:55:06;;;;;;;1.90;1.90;;;;;;;35.18;32.00;96711.41;5051067;28;20497;-67
2023/07/19 09:57:35;;;;;;;2.42;2.40;;;;;;;35.26;31.21;96702.94;5063588;28;20048;-72
2023/07/19 10:00:03;;;;;;;2.10;2.10;;;;;;;34.79;31.77;96633.34;5061362;28;20052;-71
2023/07/19 10:02:30;;;;;;;1.80;1.80;;;;;;;35.39;31.75;96651.97;5062666;28;20066;-66
2023/07/19 10:05:06;;;;;;;2.13;2.13;;;;;;;35.62;32.14;96725.25;5061993;28;20057;-64
2023/07/19 10:07:34;;;;;;;1.90;1.90;;;;;;;35.31;32.30;96691.34;5063944;28;20131;-71
2023/07/19 10:10:18;;;;;;;2.08;2.08;;;;;;;34.58;33.08;96658.19;5062408;28;20438;-72
2023/07/19 10:12:50;;;;;;;2.13;2.13;;;;;;;35.02;32.39;96706.63;5048981;28;20144;-66
2023/07/19 10:15:18;;;;;;;2.10;2.10;;;;;;;34.31;32.73;96593.06;5042240;28;20048;-74
2023/07/19 10:17:50;;;;;;;1.90;1.90;;;;;;;35.50;31.71;96697.94;5041329;28;20473;-64
2023/07/19 10:20:22;;;;;;;1.90;1.90;;;;;;;34.66;32.33;96633.25;5026699;28;20550;-79
2023/07/19 10:22:58;;;;;;;1.90;1.90;;;;;;;35.32;32.60;96707.31;5031323;28;20141;-63
2023/07/19 10:25:45;;;;;;;2.22;2.22;;;;;;;35.97;31.53;96706.94;5024963;28;20494;-72
2023/07/19 10:28:13;;;;;;;2.35;2.35;;;;;;;35.91;31.47;96662.97;5039783;28;20053;-71
2023/07/19 10:30:46;;;;;;;2.00;2.00;;;;;;;35.88;31.43;96704.47;5038867;28;20053;-67
2023/07/19 10:33:15;;;;;;;1.90;1.90;;;;;;;35.60;32.05;96650.06;5042068;28;20057;-65
2023/07/19 10:35:43;;;;;;;2.10;2.10;;;;;;;35.91;31.02;96646.47;5042679;28;20636;-69
2023/07/19 10:38:22;;;;;;;1.73;1.73;;;;;;;36.25;31.63;96684.94;5041862;28;20059;-78
2023/07/19 10:40:57;;;;;;;2.15;2.15;;;;;;;36.22;31.61;96683.16;5040900;28;20106;-66
2023/07/19 10:43:26;;;;;;;2.00;2.00;;;;;;;36.23;31.11;96621.22;5041181;28;20048;-67
2023/07/19 10:46:13;;;;;;;1.80;1.80;;;;;;;36.43;31.27;96626.41;5041391;28;20707;-77
2023/07/19 10:48:40;;;;;;;2.20;2.20;;;;;;;36.66;30.52;96677.94;5044047;28;20055;-67
2023/07/19 10:51:08;;;;;;;1.85;1.85;;;;;;;35.95;30.42;96563.28;5043160;28;20049;-77
2023/07/19 10:53:46;;;;;;;1.95;1.95;;;;;;;36.32;30.29;96629.50;5043090;28;20051;-68
2023/07/19 10:56:15;;;;;;;2.00;2.00;;;;;;;36.37;30.18;96653.81;5042566;28;20045;-68
2023/07/19 10:58:42;;;;;;;2.13;2.13;;;;;;;36.80;29.93;96634.09;5042214;28;21521;-77
2023/07/19 11:01:10;;;;;;;2.00;2.00;;;;;;;37.33;28.96;96675.28;5032296;28;20152;-76
2023/07/19 11:03:39;;;;;;;1.90;1.90;;;;;;;36.93;29.30;96648.53;5021005;28;20053;-71
2023/07/19 11:06:08;;;;;;;2.10;2.10;;;;;;;36.86;29.34;96660.75;5028248;28;20465;-76
2023/07/19 11:08:35;;;;;;;2.15;2.15;;;;;;;36.63;29.18;96610.53;5032383;28;20057;-76
2023/07/19 11:11:02;;;;;;;1.70;1.70;;;;;;;37.05;29.99;96632.53;5034451;28;20483;-72
2023/07/19 11:13:30;;;;;;;1.80;1.80;;;;;;;37.61;29.62;96655.19;5039583;28;20061;-67
2023/07/19 11:15:58;;;;;;;1.95;1.95;;;;;;;37.64;28.49;96625.13;5041503;28;20167;-71
2023/07/19 11:18:35;;;;;;;2.20;2.20;;;;;;;37.63;28.39;96655.41;5042396;28;20048;-80
2023/07/19 11:21:03;;;;;;;2.15;2.15;;;;;;;37.20;28.71;96597.25;5029529;28;20427;-69
2023/07/19 11:23:30;;;;;;;2.45;2.35;;;;;;;37.47;28.88;96627.66;5038316;28;20143;-75
2023/07/19 11:26:09;;;;;;;2.17;2.17;;;;;;;36.95;28.68;96549.75;5035196;28;20144;-74
2023/07/19 11:28:55;;;;;;;2.00;2.00;;;;;;;37.36;28.54;96627.91;5029545;28;20139;-75
2023/07/19 11:31:34;;;;;;;2.22;2.22;;;;;;;37.43;28.67;96621.44;5042234;28;20131;-71
2023/07/19 11:34:06;;;;;;;2.00;2.00;;;;;;;37.33;28.32;96605.91;5034811;28;20141;-73
2023/07/19 11:36:33;;;;;;;2.10;2.10;;;;;;;37.98;28.06;96631.69;5022633;28;20053;-71
2023/07/19 11:39:00;;;;;;;2.10;2.10;;;;;;;38.05;28.66;96601.28;5033012;28;20045;-71